UUOO/VOZ METAR and TAF weather

Enter ICAO airport designator
Station Type Date Time Source
UUOO METAR 2018/12/11 18:00 UTC NOAA

UUOO 111800Z 10003MPS 0350 R30/1000D FG VV001 00/M00 Q1014 R30/290242 TEMPO 1000 FZDZ BR RMK QBB030 QFE747


Station Type Date Time Source
UUOO Decoded METAR 2018/12/11 18:00 UTC NOAA

Voronez, Russia (UUOO) 51-39N 039-15E 104M
Dec 11, 2018 - 01:00 PM EST / 2018.12.11 1800 UTC
Wind: from the E (100 degrees) at 7 MPH (6 KT):0
Visibility: less than 1 mile:0
Sky conditions: obscured
Weather: fog
Temperature: 32 F (0 C)
Windchill: 24 F (-4 C):1
Dew Point: 32 F (0 C)
Relative Humidity: 100%
Pressure (altimeter): 29.94 in. Hg (1014 hPa)
ob: UUOO 111800Z 10003MPS 0350 R30/1000D FG VV001 00/M00 Q1014 R30/290242 TEMPO 1000 FZDZ BR RMK QBB030 QFE747
cycle: 18

Station Type Date Time Source
UUOO TAF 2018/12/04 17:51 UTC NOAA

TAF
AMD TAF
AMD UUOO 041549Z 0417/0524 14004MPS 0600 FZFG VV002
TEMPO 0418/0421 1400 FZDZ BR VV002


Example: see airport list